createdAt,value
2022-10-05T00:00:56.872Z,4.07
2022-10-05T00:03:37.151Z,4.15
2022-10-05T00:06:05.272Z,4.43
2022-10-05T00:08:34.342Z,5.15
2022-10-05T00:11:01.713Z,3.70
2022-10-05T00:13:30.743Z,4.47
2022-10-05T00:16:19.339Z,3.40
2022-10-05T00:18:48.071Z,3.90
2022-10-05T00:21:27.363Z,4.00
2022-10-05T00:23:56.889Z,4.10
2022-10-05T00:26:25.481Z,4.10
2022-10-05T00:28:53.519Z,3.95
2022-10-05T00:31:23.123Z,3.95
2022-10-05T00:33:51.164Z,3.75
2022-10-05T00:36:18.846Z,3.92
2022-10-05T00:38:46.655Z,4.00
2022-10-05T00:41:18.577Z,4.07
2022-10-05T00:43:53.759Z,4.03
2022-10-05T00:46:21.216Z,3.90
2022-10-05T00:48:54.650Z,4.10
2022-10-05T00:51:25.274Z,3.40
2022-10-05T00:53:52.679Z,3.67
2022-10-05T00:56:23.084Z,3.25
2022-10-05T00:58:53.734Z,3.58
2022-10-05T01:01:28.593Z,3.85
2022-10-05T01:03:59.019Z,3.53
2022-10-05T01:06:45.105Z,3.53
2022-10-05T01:09:15.776Z,3.50
2022-10-05T01:12:03.337Z,3.63
2022-10-05T01:14:39.755Z,3.25
2022-10-05T01:17:12.544Z,3.55
2022-10-05T01:19:43.095Z,3.90
2022-10-05T01:22:18.132Z,3.70
2022-10-05T01:24:45.483Z,3.88
2022-10-05T01:27:51.511Z,3.35
2022-10-05T01:30:22.906Z,4.03
2022-10-05T01:33:08.854Z,4.00
2022-10-05T01:35:55.937Z,3.78
2022-10-05T01:38:29.674Z,3.53
2022-10-05T01:41:00.274Z,4.25
2022-10-05T01:43:46.167Z,4.35
2022-10-05T01:46:32.396Z,4.28
2022-10-05T01:48:59.697Z,4.75
2022-10-05T01:51:46.268Z,4.07
2022-10-05T01:54:28.041Z,4.05
2022-10-05T01:57:14.218Z,3.97
2022-10-05T01:59:49.019Z,4.00
2022-10-05T02:02:20.794Z,3.65
2022-10-05T02:05:07.227Z,3.65
2022-10-05T02:07:40.892Z,3.80
2022-10-05T02:10:14.492Z,3.88
2022-10-05T02:12:42.907Z,4.30
2022-10-05T02:15:17.847Z,3.78
2022-10-05T02:17:52.995Z,3.35
2022-10-05T02:20:32.607Z,3.83
2022-10-05T02:23:03.904Z,4.13
2022-10-05T02:25:37.257Z,3.63
2022-10-05T02:28:20.584Z,3.60
2022-10-05T02:31:10.954Z,3.63
2022-10-05T02:33:38.412Z,3.30
2022-10-05T02:36:12.908Z,3.70
2022-10-05T02:38:53.591Z,3.42
2022-10-05T02:41:36.929Z,3.80
2022-10-05T02:44:22.548Z,3.47
2022-10-05T02:47:08.503Z,4.05
2022-10-05T02:49:35.858Z,3.20
2022-10-05T02:52:07.682Z,2.67
2022-10-05T02:54:46.996Z,3.40
2022-10-05T02:57:35.062Z,3.33
2022-10-05T03:00:10.781Z,2.75
2022-10-05T03:02:45.083Z,3.40
2022-10-05T03:05:18.893Z,2.75
2022-10-05T03:08:02.732Z,3.50
2022-10-05T03:10:30.146Z,3.28
2022-10-05T03:13:03.562Z,3.72
2022-10-05T03:15:49.862Z,3.15
2022-10-05T03:18:30.871Z,3.33
2022-10-05T03:21:14.195Z,3.22
2022-10-05T03:23:47.439Z,3.42
2022-10-05T03:26:20.881Z,3.42
2022-10-05T03:28:57.529Z,3.30
2022-10-05T03:31:40.350Z,3.47
2022-10-05T03:34:11.746Z,3.55
2022-10-05T03:36:39.429Z,3.25
2022-10-05T03:39:25.493Z,3.60
2022-10-05T03:42:01.539Z,4.13
2022-10-05T03:44:36.598Z,4.20
2022-10-05T03:47:16.161Z,3.67
2022-10-05T03:50:01.861Z,3.47
2022-10-05T03:55:04.723Z,3.75
2022-10-05T03:57:37.186Z,2.97
2022-10-05T04:00:04.943Z,2.97
2022-10-05T04:02:35.539Z,3.20
2022-10-05T04:05:12.816Z,3.10
2022-10-05T04:07:43.786Z,3.45
2022-10-05T04:10:14.718Z,4.05
2022-10-05T04:12:44.116Z,3.78
2022-10-05T04:15:24.920Z,4.25
2022-10-05T04:18:04.397Z,3.55
2022-10-05T04:20:45.491Z,4.05
2022-10-05T04:23:31.632Z,3.20
2022-10-05T04:26:03.371Z,3.92
2022-10-05T04:28:33.853Z,3.78
2022-10-05T04:31:01.564Z,3.88
2022-10-05T04:33:28.950Z,3.25
2022-10-05T04:36:10.280Z,4.25
2022-10-05T04:38:52.832Z,3.30
2022-10-05T04:41:25.009Z,3.72
2022-10-05T04:44:01.466Z,3.50
2022-10-05T04:46:55.334Z,4.10
2022-10-05T04:49:31.811Z,3.83
2022-10-05T04:52:02.240Z,5.45
2022-10-05T04:54:45.503Z,3.95
2022-10-05T04:57:17.769Z,3.55
2022-10-05T04:59:51.474Z,4.22
2022-10-05T05:02:18.826Z,4.10
2022-10-05T05:05:03.123Z,4.00
2022-10-05T05:07:42.182Z,4.40
2022-10-05T05:10:27.942Z,3.85
2022-10-05T05:15:22.541Z,4.28
2022-10-05T05:18:03.357Z,4.63
2022-10-05T05:20:41.283Z,4.13
2022-10-05T05:23:18.706Z,4.40
2022-10-05T05:25:58.366Z,4.60
2022-10-05T05:28:37.757Z,4.88
2022-10-05T05:31:10.197Z,4.10
2022-10-05T05:33:46.832Z,4.93
2022-10-05T05:36:23.411Z,4.20
2022-10-05T05:38:59.433Z,4.45
2022-10-05T05:41:26.700Z,4.63
2022-10-05T05:44:12.449Z,3.70
2022-10-05T05:49:47.631Z,4.38
2022-10-05T05:52:35.162Z,4.85
2022-10-05T05:55:02.614Z,4.90
2022-10-05T05:57:33.314Z,4.95
2022-10-05T06:00:07.177Z,5.10
2022-10-05T06:02:50.037Z,4.90
2022-10-05T06:05:25.995Z,5.07
2022-10-05T06:07:54.825Z,4.75
2022-10-05T06:10:22.363Z,5.03
2022-10-05T06:12:50.491Z,5.88
2022-10-05T06:15:33.453Z,6.47
2022-10-05T06:18:03.979Z,5.65
2022-10-05T06:20:34.317Z,5.43
2022-10-05T06:23:03.199Z,5.22
2022-10-05T06:25:43.009Z,5.60
2022-10-05T06:28:15.062Z,6.15
2022-10-05T06:30:48.551Z,5.20
2022-10-05T06:33:23.812Z,5.50
2022-10-05T06:38:18.485Z,5.72
2022-10-05T06:41:12.104Z,6.65
2022-10-05T06:43:44.709Z,6.50
2022-10-05T06:46:23.140Z,6.70
2022-10-05T06:49:09.494Z,6.57
2022-10-05T06:51:46.101Z,5.85
2022-10-05T06:54:13.419Z,6.80
2022-10-05T06:56:54.780Z,6.22
2022-10-05T06:59:31.021Z,6.60
2022-10-05T07:02:14.154Z,6.00
2022-10-05T07:04:44.686Z,6.32
2022-10-05T07:07:20.494Z,6.80
2022-10-05T07:09:47.805Z,7.20
2022-10-05T07:12:27.146Z,7.00
2022-10-05T07:14:54.446Z,6.10
2022-10-05T07:17:21.804Z,7.13
2022-10-05T07:20:04.805Z,6.18
2022-10-05T07:22:34.958Z,6.93
2022-10-05T07:25:05.379Z,6.05
2022-10-05T07:27:37.825Z,6.07
2022-10-05T07:30:12.573Z,5.80
2022-10-05T07:33:06.564Z,6.07
2022-10-05T07:35:55.474Z,6.10
2022-10-05T07:38:26.103Z,5.75
2022-10-05T07:40:56.519Z,5.60
2022-10-05T07:43:23.860Z,5.70
2022-10-05T07:46:06.404Z,6.15
2022-10-05T07:48:46.862Z,6.10
2022-10-05T07:51:24.644Z,7.80
2022-10-05T07:53:58.246Z,7.15
2022-10-05T07:56:37.749Z,5.70
2022-10-05T07:59:08.218Z,6.05
2022-10-05T08:01:37.807Z,6.30
2022-10-05T08:04:08.438Z,5.88
2022-10-05T08:06:41.329Z,5.63
2022-10-05T08:09:14.842Z,7.28
2022-10-05T08:11:54.908Z,7.95
2022-10-05T08:14:42.878Z,7.75
2022-10-05T08:17:31.371Z,7.30
2022-10-05T08:20:10.979Z,6.95
2022-10-05T08:22:43.013Z,7.30
2022-10-05T08:25:15.647Z,6.97
2022-10-05T08:27:47.720Z,6.60
2022-10-05T08:30:17.173Z,7.00
2022-10-05T08:32:47.603Z,6.53
2022-10-05T08:35:21.452Z,6.15
2022-10-05T08:37:49.781Z,6.47
2022-10-05T08:40:21.681Z,5.88
2022-10-05T08:43:07.797Z,6.22
2022-10-05T08:49:17.613Z,6.20
2022-10-05T08:52:13.880Z,5.53
2022-10-05T08:58:03.672Z,5.72
2022-10-05T09:00:36.915Z,6.15
2022-10-05T09:03:34.346Z,6.40
2022-10-05T09:06:09.614Z,6.82
2022-10-05T09:09:00.817Z,6.18
2022-10-05T09:11:37.601Z,6.43
2022-10-05T09:14:18.179Z,5.28
2022-10-05T09:17:12.871Z,7.13
2022-10-05T09:22:47.661Z,5.18
2022-10-05T09:25:26.302Z,6.70
2022-10-05T09:27:58.129Z,5.65
2022-10-05T09:30:56.385Z,5.50
2022-10-05T09:33:26.420Z,5.15
2022-10-05T09:36:18.202Z,5.40
2022-10-05T09:39:06.486Z,5.40
2022-10-05T09:41:46.871Z,5.30
2022-10-05T09:44:40.774Z,5.55
2022-10-05T09:47:21.066Z,5.03
2022-10-05T09:50:17.477Z,5.05
2022-10-05T09:53:05.238Z,5.25
2022-10-05T09:55:36.266Z,5.10
2022-10-05T09:58:06.904Z,4.97
2022-10-05T10:01:09.039Z,4.30
2022-10-05T10:03:49.810Z,4.43
2022-10-05T10:06:37.106Z,4.35
2022-10-05T10:09:17.650Z,4.43
2022-10-05T10:12:10.868Z,4.25
2022-10-05T10:14:41.517Z,4.30
2022-10-05T10:17:28.194Z,5.00
2022-10-05T10:20:20.438Z,4.10
2022-10-05T10:23:07.056Z,4.30
2022-10-05T10:25:46.885Z,4.07
2022-10-05T10:28:48.101Z,4.53
2022-10-05T10:31:18.260Z,4.50
2022-10-05T10:33:57.944Z,5.07
2022-10-05T10:36:31.542Z,4.35
2022-10-05T10:39:31.003Z,5.22
2022-10-05T10:42:08.089Z,5.07
2022-10-05T10:44:49.033Z,4.20
2022-10-05T10:47:21.837Z,4.65
2022-10-05T10:50:27.540Z,4.60
2022-10-05T10:52:57.926Z,5.03
2022-10-05T10:55:43.815Z,4.57
2022-10-05T11:01:06.839Z,4.22
2022-10-05T11:03:58.540Z,4.90
2022-10-05T11:06:26.119Z,4.35
2022-10-05T11:09:34.566Z,4.20
2022-10-05T11:12:02.766Z,3.90
2022-10-05T11:14:40.195Z,4.90
2022-10-05T11:17:23.186Z,5.30
2022-10-05T11:20:18.816Z,5.57
2022-10-05T11:22:58.965Z,4.93
2022-10-05T11:25:47.859Z,4.38
2022-10-05T11:28:30.681Z,4.65
2022-10-05T11:31:17.294Z,4.93
2022-10-05T11:33:45.266Z,4.32
2022-10-05T11:36:17.742Z,4.28
2022-10-05T11:39:11.736Z,4.47
2022-10-05T11:41:41.413Z,4.35
2022-10-05T11:44:27.375Z,4.05
2022-10-05T11:47:09.043Z,3.95
2022-10-05T11:49:37.575Z,4.43
2022-10-05T11:52:08.157Z,4.15
2022-10-05T11:55:09.076Z,4.20
2022-10-05T11:57:43.366Z,4.00
2022-10-05T12:00:16.595Z,3.75
2022-10-05T12:02:45.878Z,3.50
2022-10-05T12:05:45.744Z,3.60
2022-10-05T12:08:31.622Z,3.13
2022-10-05T12:11:01.935Z,3.30
2022-10-05T12:13:31.221Z,3.45
2022-10-05T12:19:17.935Z,2.45
2022-10-05T12:21:45.290Z,2.40
2022-10-05T12:24:22.180Z,2.50
2022-10-05T12:26:56.384Z,2.28
2022-10-05T12:34:25.894Z,2.30
2022-10-05T12:37:05.223Z,2.25
2022-10-05T12:39:44.848Z,1.92
2022-10-05T12:42:24.538Z,2.00
2022-10-05T12:47:32.355Z,2.05
2022-10-05T12:50:02.443Z,2.20
2022-10-05T12:52:29.827Z,2.00
2022-10-05T12:54:57.813Z,2.10
2022-10-05T13:00:22.898Z,2.20
2022-10-05T13:03:13.515Z,2.20
2022-10-05T13:05:46.510Z,1.80
2022-10-05T13:08:37.882Z,1.83
2022-10-05T13:11:15.045Z,1.80
2022-10-05T13:13:54.473Z,1.80
2022-10-05T13:16:31.075Z,1.95
2022-10-05T13:19:13.772Z,2.42
2022-10-05T13:21:49.960Z,1.67
2022-10-05T13:24:23.257Z,1.63
2022-10-05T13:27:01.673Z,2.00
2022-10-05T13:29:33.196Z,1.70
2022-10-05T13:32:02.817Z,2.00
2022-10-05T13:34:32.931Z,1.60
2022-10-05T13:37:23.206Z,2.15
2022-10-05T13:39:53.798Z,2.50
2022-10-05T13:42:39.942Z,1.80
2022-10-05T13:45:33.448Z,1.80
2022-10-05T13:48:11.232Z,1.77
2022-10-05T13:51:01.813Z,1.80
2022-10-05T13:53:32.454Z,1.92
2022-10-05T13:56:00.798Z,1.80
2022-10-05T13:58:28.632Z,2.00
2022-10-05T14:00:56.678Z,2.15
2022-10-05T14:03:35.178Z,1.92
2022-10-05T14:06:06.415Z,2.10
2022-10-05T14:08:35.593Z,1.70
2022-10-05T14:11:22.100Z,2.10
2022-10-05T14:13:50.631Z,1.50
2022-10-05T14:16:25.476Z,2.00
2022-10-05T14:18:55.930Z,1.67
2022-10-05T14:21:24.569Z,1.80
2022-10-05T14:23:52.568Z,1.80
2022-10-05T14:26:38.295Z,1.55
2022-10-05T14:29:25.026Z,1.63
2022-10-05T14:32:11.146Z,1.73
2022-10-05T14:34:45.849Z,1.90
2022-10-05T14:37:27.634Z,1.33
2022-10-05T14:39:57.991Z,1.83
2022-10-05T14:42:27.538Z,1.73
2022-10-05T14:45:02.138Z,1.40
2022-10-05T14:47:31.592Z,1.80
2022-10-05T14:50:16.846Z,1.90
2022-10-05T14:53:00.253Z,1.35
2022-10-05T14:55:34.047Z,1.40
2022-10-05T14:58:13.623Z,1.50
2022-10-05T15:00:48.942Z,1.95
2022-10-05T15:03:27.396Z,1.80
2022-10-05T15:05:55.854Z,1.60
2022-10-05T15:08:45.298Z,1.90
2022-10-05T15:11:18.542Z,2.15
2022-10-05T15:13:48.662Z,1.60
2022-10-05T15:16:25.510Z,2.13
2022-10-05T15:18:56.817Z,1.60
2022-10-05T15:21:33.029Z,1.63
2022-10-05T15:24:09.586Z,1.98
2022-10-05T15:26:36.824Z,1.90
2022-10-05T15:29:16.252Z,1.90
2022-10-05T15:31:59.123Z,2.25
2022-10-05T15:34:45.263Z,2.00
2022-10-05T15:37:17.069Z,2.13
2022-10-05T15:39:44.266Z,1.85
2022-10-05T15:42:13.192Z,1.73
2022-10-05T15:44:49.439Z,2.00
2022-10-05T15:47:39.962Z,1.90
2022-10-05T15:50:19.555Z,1.70
2022-10-05T15:55:32.300Z,2.85
2022-10-05T15:58:18.389Z,2.15
2022-10-05T16:00:48.064Z,2.40
2022-10-05T16:03:34.081Z,2.72
2022-10-05T16:06:25.547Z,2.30
2022-10-05T16:09:11.346Z,2.45
2022-10-05T16:11:46.192Z,3.22
2022-10-05T16:14:28.093Z,2.65
2022-10-05T16:17:13.876Z,2.60
2022-10-05T16:19:56.683Z,3.00
2022-10-05T16:22:43.341Z,2.30
2022-10-05T16:25:13.959Z,2.20
2022-10-05T16:27:44.050Z,2.60
2022-10-05T16:30:13.994Z,2.20
2022-10-05T16:32:50.064Z,2.42
2022-10-05T16:35:35.961Z,2.38
2022-10-05T16:38:03.160Z,3.40
2022-10-05T16:40:35.925Z,3.00
2022-10-05T16:43:18.607Z,2.42
2022-10-05T16:46:04.467Z,3.08
2022-10-05T16:48:34.762Z,2.25
2022-10-05T16:51:21.405Z,3.03
2022-10-05T16:54:02.007Z,2.97
2022-10-05T16:56:34.434Z,2.20
2022-10-05T16:59:01.598Z,2.70
2022-10-05T17:01:44.302Z,3.10
2022-10-05T17:04:27.440Z,2.53
2022-10-05T17:07:13.107Z,2.38
2022-10-05T17:09:46.925Z,2.25
2022-10-05T17:12:32.707Z,2.30
2022-10-05T17:15:10.359Z,2.30
2022-10-05T17:17:40.587Z,2.45
2022-10-05T17:20:13.840Z,2.25
2022-10-05T17:22:50.881Z,2.30
2022-10-05T17:25:25.227Z,2.38
2022-10-05T17:28:15.244Z,1.80
2022-10-05T17:30:54.058Z,2.63
2022-10-05T17:33:25.772Z,2.78
2022-10-05T17:36:12.683Z,2.80
2022-10-05T17:38:42.882Z,3.35
2022-10-05T17:41:13.096Z,2.70
2022-10-05T17:43:40.884Z,3.17
2022-10-05T17:46:11.348Z,3.00
2022-10-05T17:48:41.825Z,2.70
2022-10-05T17:51:46.598Z,3.67
2022-10-05T17:54:48.215Z,3.08
2022-10-05T17:57:15.513Z,2.75
2022-10-05T17:59:57.800Z,2.80
2022-10-05T18:02:40.170Z,4.47
2022-10-05T18:05:07.415Z,4.70
2022-10-05T18:07:35.685Z,3.83
2022-10-05T18:10:11.841Z,3.67
2022-10-05T18:12:46.985Z,5.18
2022-10-05T18:17:46.523Z,5.18
2022-10-05T18:20:18.340Z,5.97
2022-10-05T18:22:47.039Z,7.47
2022-10-05T18:25:26.077Z,7.82
2022-10-05T18:28:08.392Z,6.70
2022-10-05T18:30:59.381Z,6.93
2022-10-05T18:33:41.187Z,5.88
2022-10-05T18:36:18.980Z,5.57
2022-10-05T18:38:58.527Z,5.32
2022-10-05T18:41:37.800Z,5.50
2022-10-05T18:44:17.407Z,4.65
2022-10-05T18:46:56.838Z,4.20
2022-10-05T18:49:38.458Z,3.85
2022-10-05T18:52:14.633Z,4.00
2022-10-05T18:54:44.659Z,3.92
2022-10-05T18:57:21.032Z,3.60
2022-10-05T18:59:52.356Z,3.70
2022-10-05T19:02:24.130Z,3.45
2022-10-05T19:05:09.180Z,3.22
2022-10-05T19:07:59.259Z,3.17
2022-10-05T19:10:35.285Z,3.95
2022-10-05T19:13:08.465Z,3.45
2022-10-05T19:15:45.012Z,3.03
2022-10-05T19:18:15.364Z,4.00
2022-10-05T19:20:47.829Z,3.30
2022-10-05T19:23:24.663Z,3.22
2022-10-05T19:25:53.108Z,3.30
2022-10-05T19:28:20.672Z,3.28
2022-10-05T19:30:50.843Z,2.92
2022-10-05T19:33:27.502Z,3.50
2022-10-05T19:35:58.594Z,3.22
2022-10-05T19:38:40.913Z,3.88
2022-10-05T19:41:27.542Z,4.13
2022-10-05T19:43:57.526Z,3.17
2022-10-05T19:46:30.930Z,3.47
2022-10-05T19:48:58.557Z,3.28
2022-10-05T19:51:29.510Z,3.33
2022-10-05T19:53:58.824Z,3.08
2022-10-05T19:56:28.699Z,3.13
2022-10-05T19:59:01.061Z,3.13
2022-10-05T20:01:36.993Z,3.47
2022-10-05T20:04:05.380Z,3.00
2022-10-05T20:06:32.601Z,3.20
2022-10-05T20:09:01.793Z,3.10
2022-10-05T20:11:29.366Z,2.67
2022-10-05T20:14:02.612Z,3.08
2022-10-05T20:16:50.172Z,2.95
2022-10-05T20:19:48.352Z,2.70
2022-10-05T20:22:34.732Z,2.88
2022-10-05T20:25:06.469Z,3.78
2022-10-05T20:27:36.787Z,3.33
2022-10-05T20:30:05.018Z,3.35
2022-10-05T20:32:32.341Z,3.25
2022-10-05T20:34:59.602Z,3.42
2022-10-05T20:37:27.128Z,3.47
2022-10-05T20:39:54.349Z,4.10
2022-10-05T20:42:23.941Z,4.82
2022-10-05T20:44:56.513Z,3.83
2022-10-05T20:47:24.288Z,4.35
2022-10-05T20:49:53.490Z,3.90
2022-10-05T20:52:21.005Z,4.35
2022-10-05T20:54:48.336Z,4.50
2022-10-05T20:57:15.517Z,5.32
2022-10-05T20:59:42.729Z,6.10
2022-10-05T21:02:10.780Z,4.53
2022-10-05T21:04:41.858Z,5.65
2022-10-05T21:07:09.658Z,5.90
2022-10-05T21:09:38.540Z,6.43
2022-10-05T21:12:06.002Z,5.18
2022-10-05T21:14:34.564Z,5.90
2022-10-05T21:17:02.224Z,5.60
2022-10-05T21:19:29.631Z,4.72
2022-10-05T21:22:02.574Z,5.00
2022-10-05T21:24:29.766Z,4.72
2022-10-05T21:26:57.733Z,5.30
2022-10-05T21:29:24.985Z,4.80
2022-10-05T21:31:52.493Z,4.63
2022-10-05T21:34:19.757Z,4.32
2022-10-05T21:36:46.938Z,5.25
2022-10-05T21:39:14.157Z,5.13
2022-10-05T21:41:41.531Z,4.75
2022-10-05T21:44:08.702Z,5.57
2022-10-05T21:46:36.919Z,5.25
2022-10-05T21:49:04.473Z,5.95
2022-10-05T21:51:31.704Z,5.60
2022-10-05T21:54:01.851Z,6.60
2022-10-05T21:56:31.250Z,6.05
2022-10-05T21:58:58.765Z,5.68
2022-10-05T22:01:26.338Z,5.95
2022-10-05T22:03:53.603Z,5.97
2022-10-05T22:06:20.982Z,6.65
2022-10-05T22:08:48.262Z,6.25
2022-10-05T22:11:16.993Z,5.88
2022-10-05T22:13:48.690Z,5.38
2022-10-05T22:16:16.581Z,5.97
2022-10-05T22:18:44.253Z,5.30
2022-10-05T22:21:12.677Z,7.35
2022-10-05T22:23:40.561Z,5.85
2022-10-05T22:26:08.978Z,6.70
2022-10-05T22:28:37.106Z,6.45
2022-10-05T22:31:06.029Z,6.68
2022-10-05T22:33:33.387Z,6.10
2022-10-05T22:36:01.415Z,6.68
2022-10-05T22:38:30.698Z,7.22
2022-10-05T22:40:58.724Z,7.07
2022-10-05T22:43:27.131Z,7.70
2022-10-05T22:45:54.773Z,7.82
2022-10-05T22:48:22.524Z,7.60
2022-10-05T22:53:24.941Z,8.32
2022-10-05T22:55:52.155Z,9.38
2022-10-05T22:58:19.513Z,8.63
2022-10-05T23:00:58.075Z,7.55
2022-10-05T23:03:26.306Z,7.70
2022-10-05T23:06:03.198Z,6.38
2022-10-05T23:08:34.238Z,5.78
2022-10-05T23:11:02.826Z,6.07
2022-10-05T23:18:50.494Z,4.03
2022-10-05T23:21:18.462Z,3.58
2022-10-05T23:23:47.414Z,4.20
2022-10-05T23:26:14.796Z,3.65
2022-10-05T23:28:49.275Z,3.13
2022-10-05T23:31:18.281Z,3.50
2022-10-05T23:33:45.669Z,3.15
2022-10-05T23:36:20.777Z,2.88
2022-10-05T23:41:16.115Z,2.80
2022-10-05T23:43:43.802Z,2.50
2022-10-05T23:46:11.099Z,2.45
2022-10-05T23:51:13.963Z,2.38
2022-10-05T23:53:41.261Z,3.03
2022-10-05T23:58:36.975Z,2.90
